Time;durP1;ratioP1;P1;durP2;ratioP2;P2;SDS_P1;SDS_P2;PMS_P1;PMS_P2;Temp;Humidity;BMP_temperature;BMP_pressure;BME280_temperature;BME280_humidity;BME280_pressure;Samples;Min_cycle;Max_cycle;Signal;HPM_P1;HPM_P2
2023/09/20 00:02:07;;;;;;;2.10;1.00;;;18.90;99.60;;;19.30;100.00;100541.03;5223471;28;20144;-53
2023/09/20 00:04:40;;;;;;;2.55;0.98;;;18.90;99.70;;;19.27;100.00;100536.66;5217776;28;20041;-53
2023/09/20 00:07:12;;;;;;;2.17;0.98;;;19.00;99.80;;;19.24;100.00;100532.28;5224195;28;20496;-53
2023/09/20 00:09:44;;;;;;;1.20;0.73;;;18.90;99.80;;;19.21;100.00;100521.72;5226759;28;20516;-53
2023/09/20 00:12:17;;;;;;;0.90;0.85;;;18.90;99.90;;;19.19;100.00;100517.31;5226283;28;20554;-53
2023/09/20 00:14:50;;;;;;;2.50;1.10;;;18.80;99.90;;;19.17;100.00;100525.25;5226929;28;20056;-53
2023/09/20 00:17:24;;;;;;;0.80;0.70;;;18.80;99.90;;;19.15;100.00;100526.13;5220483;28;20118;-54
2023/09/20 00:19:56;;;;;;;2.83;0.93;;;18.80;99.90;;;19.13;100.00;100534.06;5239973;28;20060;-53
2023/09/20 00:22:29;;;;;;;3.33;0.90;;;18.80;99.90;;;19.10;100.00;100528.78;5219840;28;20096;-53
2023/09/20 00:25:02;;;;;;;1.45;0.68;;;18.70;99.90;;;19.08;100.00;100517.38;5223142;28;20148;-54
2023/09/20 00:27:38;;;;;;;1.45;0.90;;;18.70;99.90;;;19.05;100.00;100521.81;5233610;28;20038;-52
2023/09/20 00:30:14;;;;;;;1.58;0.93;;;18.70;99.90;;;19.00;100.00;100527.09;5223902;28;20037;-53
2023/09/20 00:32:48;;;;;;;2.40;0.90;;;18.60;99.90;;;18.95;100.00;100513.91;5223139;28;20037;-54
2023/09/20 00:35:21;;;;;;;1.25;0.93;;;18.60;99.90;;;18.89;100.00;100526.25;5220812;28;20044;-53
2023/09/20 00:37:54;;;;;;;2.63;0.90;;;18.50;99.90;;;18.84;100.00;100520.97;5239191;28;20034;-54
2023/09/20 00:40:28;;;;;;;1.17;0.93;;;18.50;99.90;;;18.81;100.00;100517.47;5222868;28;20056;-53
2023/09/20 00:43:01;;;;;;;1.40;1.08;;;18.40;99.90;;;18.77;100.00;100523.63;5235362;28;20523;-54
2023/09/20 00:45:33;;;;;;;2.88;1.10;;;18.40;99.90;;;18.73;100.00;100520.13;5217058;28;20045;-54
2023/09/20 00:48:09;;;;;;;3.13;1.23;;;18.40;99.90;;;18.70;100.00;100525.41;5222223;28;20037;-53
2023/09/20 00:50:43;;;;;;;3.38;0.95;;;18.30;99.90;;;18.67;100.00;100528.97;5233977;28;20592;-52
2023/09/20 00:53:16;;;;;;;2.45;1.10;;;18.30;99.90;;;18.67;100.00;100517.53;5220887;28;20039;-53
2023/09/20 00:55:53;;;;;;;3.28;1.30;;;18.30;99.90;;;18.67;100.00;100525.44;5237153;28;20045;-53
2023/09/20 00:58:26;;;;;;;1.77;1.13;;;18.30;99.90;;;18.70;100.00;100528.94;5223039;28;20095;-53
2023/09/20 01:01:00;;;;;;;1.45;1.10;;;18.30;99.90;;;18.74;100.00;100523.66;5220545;28;20041;-53
2023/09/20 01:03:34;;;;;;;2.33;1.05;;;18.30;99.90;;;18.74;100.00;100523.66;5219314;28;20187;-55
2023/09/20 01:06:08;;;;;;;6.70;1.60;;;18.40;99.90;;;18.78;100.00;100525.38;5221536;28;20045;-54
2023/09/20 01:08:41;;;;;;;2.63;1.13;;;18.40;99.90;;;18.80;100.00;100516.59;5230416;28;20041;-52
2023/09/20 01:11:15;;;;;;;1.80;1.20;;;18.40;99.90;;;18.81;100.00;100518.34;5222617;28;20045;-54
2023/09/20 01:13:51;;;;;;;2.65;0.98;;;18.40;99.90;;;18.81;100.00;100517.47;5221459;28;20136;-54
2023/09/20 01:16:23;;;;;;;1.92;1.13;;;18.40;99.90;;;18.80;100.00;100511.31;5219674;28;20056;-53
2023/09/20 01:18:57;;;;;;;1.40;1.13;;;18.40;99.90;;;18.79;100.00;100506.03;5235033;28;20512;-53
2023/09/20 01:21:29;;;;;;;1.58;1.10;;;18.40;99.90;;;18.78;100.00;100504.25;5222550;28;20523;-54
2023/09/20 01:24:04;;;;;;;1.38;1.20;;;18.40;99.90;;;18.78;100.00;100496.34;5222926;28;20567;-54
2023/09/20 01:26:39;;;;;;;2.38;1.10;;;18.40;99.90;;;18.77;100.00;100497.22;5230708;28;20046;-53
2023/09/20 01:29:12;;;;;;;1.55;1.10;;;18.40;99.90;;;18.76;100.00;100500.75;5219140;28;20127;-53
2023/09/20 01:31:47;;;;;;;2.20;1.00;;;18.40;99.90;;;18.72;100.00;100493.75;5234426;28;20057;-53
2023/09/20 01:34:19;;;;;;;;;;;18.40;99.90;;;18.69;100.00;100492.84;5219567;28;20123;-52
2023/09/20 01:36:51;;;;;;;2.58;1.15;;;18.40;99.90;;;18.68;100.00;100503.44;5233206;28;20126;-53
2023/09/20 01:39:25;;;;;;;1.38;0.90;;;18.40;99.90;;;18.67;100.00;100492.00;5222217;28;20047;-52
2023/09/20 01:42:01;;;;;;;3.08;1.02;;;18.40;99.90;;;18.63;100.00;100500.75;5221143;28;20053;-52
2023/09/20 01:44:37;;;;;;;2.53;1.30;;;18.30;99.90;;;18.61;100.00;100497.25;5212737;28;20390;-54
2023/09/20 01:47:10;;;;;;;2.05;1.10;;;18.40;99.90;;;18.61;100.00;100494.63;5232382;28;20036;-53
2023/09/20 01:49:44;;;;;;;3.58;1.40;;;18.30;99.90;;;18.57;100.00;100484.06;5225149;28;20492;-54
2023/09/20 01:52:16;;;;;;;1.95;1.23;;;18.30;99.90;;;18.56;100.00;100487.59;5221942;28;20087;-53
2023/09/20 01:54:55;;;;;;;1.77;1.10;;;18.30;99.90;;;18.55;100.00;100486.72;5218530;28;20539;-54
2023/09/20 01:57:27;;;;;;;3.53;1.10;;;18.20;99.90;;;18.54;100.00;100479.69;5221772;28;20037;-52
2023/09/20 01:59:59;;;;;;;5.20;1.50;;;18.20;99.90;;;18.52;100.00;100476.19;5224738;28;20049;-52
2023/09/20 02:02:32;;;;;;;2.50;1.40;;;18.20;99.90;;;18.51;100.00;100484.94;5230604;28;20044;-53
2023/09/20 02:05:05;;;;;;;2.55;1.13;;;18.20;99.90;;;18.51;100.00;100471.75;5222027;28;20045;-53
2023/09/20 02:07:38;;;;;;;2.40;1.15;;;18.20;99.90;;;18.50;100.00;100472.63;5230520;28;20041;-54
2023/09/20 02:10:12;;;;;;;2.45;1.52;;;18.20;99.90;;;18.49;100.00;100473.53;5220883;28;20041;-53
2023/09/20 02:12:46;;;;;;;3.03;1.00;;;18.20;99.90;;;18.47;100.00;100470.03;5218405;28;20068;-53
2023/09/20 02:15:19;;;;;;;3.35;1.13;;;18.10;99.90;;;18.47;100.00;100471.78;5219108;28;20103;-54
2023/09/20 02:17:52;;;;;;;2.20;1.48;;;18.10;99.90;;;18.44;100.00;100456.81;5241601;28;20554;-54
2023/09/20 02:20:26;;;;;;;1.83;1.20;;;18.10;99.90;;;18.44;100.00;100468.25;5222684;28;20535;-53
2023/09/20 02:22:58;;;;;;;3.22;1.48;;;18.10;99.90;;;18.46;100.00;100470.03;5220088;28;20053;-53
2023/09/20 02:25:32;;;;;;;3.30;1.10;;;18.10;99.90;;;18.46;100.00;100464.75;5222393;28;20124;-54
2023/09/20 02:28:07;;;;;;;3.35;1.08;;;18.10;99.90;;;18.44;100.00;100465.63;5228945;28;20037;-53
2023/09/20 02:30:41;;;;;;;3.58;1.15;;;18.10;99.90;;;18.43;100.00;100463.88;5226597;28;20116;-55
2023/09/20 02:33:18;;;;;;;2.45;1.25;;;18.10;99.90;;;18.45;100.00;100469.13;5225608;28;20147;-53
2023/09/20 02:35:53;;;;;;;3.08;1.27;;;18.10;99.90;;;18.44;100.00;100468.25;5226009;28;20052;-53
2023/09/20 02:38:28;;;;;;;2.78;1.02;;;18.10;99.90;;;18.45;100.00;100466.50;5224937;28;20045;-54
2023/09/20 02:41:02;;;;;;;;;;;18.10;99.90;;;18.43;100.00;100460.34;5228633;28;20100;-52
2023/09/20 02:43:35;;;;;;;4.05;1.27;;;18.10;99.90;;;18.42;100.00;100461.22;5221935;28;19929;-53
2023/09/20 02:46:13;;;;;;;4.65;1.20;;;18.10;99.90;;;18.42;100.00;100463.88;5228844;28;20135;-54
2023/09/20 02:48:45;;;;;;;2.80;1.50;;;18.10;99.90;;;18.41;100.00;100452.44;5223357;28;20512;-52
2023/09/20 02:51:18;;;;;;;2.17;1.38;;;18.10;99.90;;;18.39;100.00;100461.25;5223272;28;20053;-52
2023/09/20 02:53:50;;;;;;;1.55;1.23;;;18.10;99.90;;;18.36;100.00;100448.94;5220391;28;20645;-52
2023/09/20 02:56:24;;;;;;;4.63;1.30;;;18.10;99.90;;;18.33;100.00;100448.94;5225696;28;20690;-53
2023/09/20 02:58:56;;;;;;;2.35;1.40;;;18.10;99.90;;;18.32;100.00;100443.66;5220017;28;20053;-52
2023/09/20 03:01:29;;;;;;;2.28;1.15;;;18.10;99.90;;;18.31;100.00;100441.91;5225170;28;20064;-53
2023/09/20 03:04:03;;;;;;;1.92;1.23;;;18.00;99.90;;;18.29;100.00;100443.69;5227883;28;20060;-54
2023/09/20 03:06:35;;;;;;;1.83;1.10;;;18.00;99.90;;;18.27;100.00;100443.69;5231574;28;20045;-53
2023/09/20 03:09:08;;;;;;;2.03;1.20;;;18.00;99.90;;;18.27;100.00;100437.53;5228790;28;20044;-53
2023/09/20 03:11:42;;;;;;;3.95;1.45;;;18.00;99.90;;;18.27;100.00;100435.78;5231543;28;20122;-53
2023/09/20 03:14:15;;;;;;;2.97;1.00;;;18.00;99.90;;;18.26;100.00;100430.50;5237057;28;20036;-52
2023/09/20 03:16:47;;;;;;;1.60;1.10;;;17.90;99.90;;;18.26;100.00;100433.16;5233327;28;20135;-53
2023/09/20 03:19:22;;;;;;;3.13;1.13;;;18.00;99.90;;;18.26;100.00;100435.78;5222558;28;20043;-53
2023/09/20 03:21:59;;;;;;;3.55;1.35;;;17.90;99.90;;;18.23;100.00;100420.81;5232580;28;20130;-54
2023/09/20 03:24:35;;;;;;;2.95;1.20;;;17.90;99.90;;;18.20;100.00;100423.47;5238074;28;20060;-53
2023/09/20 03:27:11;;;;;;;3.85;1.52;;;17.90;99.90;;;18.19;100.00;100408.50;5219092;28;20045;-53
2023/09/20 03:29:46;;;;;;;2.15;1.02;;;17.90;99.90;;;18.18;100.00;100423.47;5230717;28;20110;-53
2023/09/20 03:32:19;;;;;;;2.03;1.10;;;17.90;99.90;;;18.17;100.00;100411.16;5224546;28;20476;-54
2023/09/20 03:34:51;;;;;;;2.10;1.08;;;17.90;99.90;;;18.18;100.00;100415.53;5220884;28;20130;-53
2023/09/20 03:37:27;;;;;;;2.33;1.23;;;17.90;99.90;;;18.16;100.00;100417.31;5221343;28;20045;-53
2023/09/20 03:40:10;;;;;;;2.10;1.13;;;17.90;99.90;;;18.15;100.00;100414.69;5231271;28;20148;-53
2023/09/20 03:42:45;;;;;;;4.00;1.40;;;17.80;99.90;;;18.13;100.00;100414.69;5237702;28;20145;-53
2023/09/20 03:45:19;;;;;;;3.15;1.27;;;17.80;99.90;;;18.10;100.00;100409.41;5213775;28;20503;-54
2023/09/20 03:47:57;;;;;;;1.80;1.05;;;17.80;99.90;;;18.11;100.00;100413.81;5237070;28;20056;-53
2023/09/20 03:50:29;;;;;;;2.33;1.02;;;17.80;99.90;;;18.08;100.00;100405.91;5226708;28;20072;-52
2023/09/20 03:53:02;;;;;;;1.70;0.98;;;17.80;99.90;;;18.08;100.00;100418.22;5228626;28;20337;-55
2023/09/20 03:55:37;;;;;;;2.90;1.10;;;17.80;99.90;;;18.06;100.00;100409.41;5237897;28;20045;-51
2023/09/20 03:58:12;;;;;;;3.17;1.75;;;17.80;99.90;;;18.04;100.00;100412.06;5228805;28;20037;-54
2023/09/20 04:00:48;;;;;;;1.60;1.00;;;17.80;99.90;;;18.05;100.00;100410.31;5230620;28;20048;-53
2023/09/20 04:03:21;;;;;;;2.05;1.13;;;17.80;99.90;;;18.04;100.00;100412.06;5236220;28;20080;-53
2023/09/20 04:05:57;;;;;;;2.60;1.20;;;17.80;99.90;;;18.03;100.00;100415.59;5234267;28;20111;-53
2023/09/20 04:08:29;;;;;;;2.22;1.48;;;17.70;99.90;;;18.02;100.00;100413.84;5224045;28;20039;-53
2023/09/20 04:11:04;;;;;;;1.73;1.15;;;17.70;99.90;;;17.99;100.00;100405.03;5229083;28;20444;-53
2023/09/20 04:13:38;;;;;;;2.00;1.30;;;17.70;99.90;;;17.99;100.00;100402.41;5228857;28;20466;-53
2023/09/20 04:16:14;;;;;;;2.08;1.23;;;17.70;99.90;;;17.97;100.00;100404.16;5219041;28;20091;-53
2023/09/20 04:18:48;;;;;;;1.52;0.80;;;17.70;99.90;;;17.96;100.00;100395.38;5215743;28;20067;-53
2023/09/20 04:21:21;;;;;;;2.70;1.20;;;17.70;99.90;;;17.95;100.00;100392.75;5220806;28;20055;-53
2023/09/20 04:23:53;;;;;;;2.35;1.25;;;17.70;99.90;;;17.95;100.00;100398.91;5239046;28;20044;-52
2023/09/20 04:26:26;;;;;;;1.80;1.00;;;17.60;99.90;;;17.95;100.00;100395.41;5220586;28;20049;-52
2023/09/20 04:29:00;;;;;;;2.40;1.13;;;17.70;99.90;;;17.92;100.00;100387.47;5237720;28;20044;-54
2023/09/20 04:31:33;;;;;;;2.35;1.20;;;17.60;99.90;;;17.89;100.00;100394.50;5214159;28;20143;-53
2023/09/20 04:34:06;;;;;;;3.30;1.35;;;17.60;99.90;;;17.88;100.00;100383.97;5227720;28;20140;-53
2023/09/20 04:36:41;;;;;;;4.07;1.38;;;17.60;99.90;;;17.84;100.00;100391.00;5235010;28;20137;-52
2023/09/20 04:39:14;;;;;;;2.63;1.30;;;17.60;99.90;;;17.83;100.00;100391.88;5226238;28;20041;-53
2023/09/20 04:41:47;;;;;;;6.05;1.15;;;17.60;99.90;;;17.81;100.00;100388.38;5235300;28;20056;-53
2023/09/20 04:44:24;;;;;;;2.60;1.33;;;17.50;99.90;;;17.79;100.00;100382.22;5220801;28;20047;-53
2023/09/20 04:46:57;;;;;;;1.80;1.10;;;17.50;99.90;;;17.77;100.00;100388.38;5236829;28;20072;-53
2023/09/20 04:49:30;;;;;;;3.22;1.27;;;17.50;99.90;;;17.76;100.00;100381.34;5223419;28;20048;-53
2023/09/20 04:52:04;;;;;;;3.25;1.27;;;17.50;99.90;;;17.75;100.00;100374.31;5239386;28;20152;-53
2023/09/20 04:54:37;;;;;;;1.73;1.23;;;17.40;99.90;;;17.71;100.00;100373.44;5225670;28;20048;-53
2023/09/20 04:57:09;;;;;;;2.50;1.25;;;17.40;99.90;;;17.71;100.00;100383.06;5232982;28;20098;-53
2023/09/20 04:59:43;;;;;;;3.03;1.33;;;17.40;99.90;;;17.68;100.00;100380.47;5224975;28;20554;-53
2023/09/20 05:02:15;;;;;;;1.80;1.17;;;17.40;99.90;;;17.67;100.00;100378.66;5228714;28;20048;-52
2023/09/20 05:04:48;;;;;;;3.03;1.33;;;17.40;99.90;;;17.64;100.00;100377.81;5215983;28;20578;-53
2023/09/20 05:07:21;;;;;;;3.42;1.33;;;17.40;99.90;;;17.63;100.00;100377.81;5228868;28;20403;-53
2023/09/20 05:09:53;;;;;;;1.40;1.15;;;17.40;99.90;;;17.63;100.00;100376.06;5235296;28;20049;-53
2023/09/20 05:12:25;;;;;;;2.38;1.05;;;17.40;99.90;;;17.62;100.00;100374.31;5222609;28;20037;-53
2023/09/20 05:14:59;;;;;;;3.50;1.25;;;17.40;99.90;;;17.61;100.00;100376.94;5216191;28;20077;-53
2023/09/20 05:17:34;;;;;;;2.42;1.50;;;17.30;99.90;;;17.62;100.00;100378.69;5216012;28;20200;-53
2023/09/20 05:20:08;;;;;;;3.60;1.27;;;17.30;99.90;;;17.59;100.00;100376.03;5228401;28;20049;-54
2023/09/20 05:22:41;;;;;;;2.92;1.25;;;17.30;99.90;;;17.57;100.00;100368.16;5230463;28;20046;-53
2023/09/20 05:25:14;;;;;;;1.55;1.15;;;17.30;99.90;;;17.56;100.00;100369.03;5238465;28;20403;-52
2023/09/20 05:27:47;;;;;;;3.40;1.35;;;17.30;99.90;;;17.59;100.00;100376.91;5229143;28;20057;-53
2023/09/20 05:30:21;;;;;;;1.90;1.00;;;17.30;99.90;;;17.60;100.00;100376.06;5228838;28;20033;-54
2023/09/20 05:32:54;;;;;;;2.75;1.40;;;17.30;99.90;;;17.63;100.00;100370.78;5225282;28;20412;-52
2023/09/20 05:35:26;;;;;;;2.55;1.30;;;17.30;99.90;;;17.66;100.00;100375.16;5221704;28;20053;-53
2023/09/20 05:37:59;;;;;;;3.67;1.23;;;17.40;99.90;;;17.65;100.00;100373.41;5235532;28;20045;-53
2023/09/20 05:40:33;;;;;;;3.75;1.20;;;17.40;99.90;;;17.66;100.00;100380.44;5228794;28;20072;-53
2023/09/20 05:43:06;;;;;;;2.88;1.13;;;17.40;99.90;;;17.70;100.00;100381.31;5227037;28;20049;-53
2023/09/20 05:45:41;;;;;;;1.73;1.25;;;17.40;99.90;;;17.73;100.00;100376.94;5225180;28;20500;-53
2023/09/20 05:48:13;;;;;;;2.65;1.23;;;17.40;99.90;;;17.75;100.00;100374.31;5228958;28;21325;-53
2023/09/20 05:50:47;;;;;;;2.65;1.27;;;17.50;99.90;;;17.79;100.00;100376.94;5222818;28;20479;-53
2023/09/20 05:53:21;;;;;;;1.98;1.20;;;17.50;99.90;;;17.80;100.00;100370.81;5229093;28;20047;-52
2023/09/20 05:55:53;;;;;;;4.22;1.40;;;17.50;99.90;;;17.82;100.00;100371.69;5222367;28;20117;-54
2023/09/20 05:58:28;;;;;;;2.80;1.40;;;17.50;99.90;;;17.84;100.00;100369.03;5214770;28;20037;-53
2023/09/20 06:01:01;;;;;;;;;;;17.60;99.90;;;17.84;100.00;100380.44;5212911;28;20103;-53
2023/09/20 06:03:34;;;;;;;3.40;1.40;;;17.60;99.90;;;17.84;100.00;100371.66;5213628;28;19960;-54
2023/09/20 06:06:07;;;;;;;3.00;1.38;;;17.60;99.90;;;17.83;100.00;100368.16;5229537;28;20048;-52
2023/09/20 06:08:39;;;;;;;3.85;1.40;;;17.60;99.90;;;17.84;100.00;100371.66;5220288;28;20041;-52
2023/09/20 06:11:11;;;;;;;2.33;1.30;;;17.60;99.90;;;18.02;100.00;100370.75;5228434;28;20045;-53
2023/09/20 06:13:44;;;;;;;2.80;1.25;;;17.70;99.90;;;18.31;100.00;100376.81;5216713;28;20559;-53
2023/09/20 06:16:18;;;;;;;3.05;1.58;;;17.90;99.90;;;18.54;100.00;100384.66;5229659;28;20422;-55
2023/09/20 06:18:50;;;;;;;2.95;1.17;;;18.10;99.90;;;18.57;100.00;100382.00;5218421;28;20065;-52
2023/09/20 06:21:23;;;;;;;3.45;1.23;;;18.20;99.90;;;18.50;100.00;100382.03;5215388;28;20049;-52
2023/09/20 06:23:57;;;;;;;2.63;1.25;;;18.20;99.90;;;18.41;100.00;100382.97;5233970;28;20567;-53
2023/09/20 06:26:29;;;;;;;2.58;1.23;;;18.20;99.90;;;18.32;100.00;100372.41;5216856;28;20064;-53
2023/09/20 06:29:02;;;;;;;1.60;1.13;;;18.10;99.90;;;18.28;100.00;100374.19;5229517;28;20045;-53
2023/09/20 06:31:36;;;;;;;3.03;1.30;;;18.00;99.90;;;18.27;100.00;100380.38;5216695;28;20051;-53
2023/09/20 06:34:09;;;;;;;3.38;1.30;;;18.00;99.90;;;18.23;100.00;100372.47;5237847;28;20052;-52
2023/09/20 06:36:41;;;;;;;4.07;1.27;;;18.00;99.90;;;18.17;100.00;100376.88;5219003;28;20055;-52
2023/09/20 06:39:18;;;;;;;4.68;1.90;;;17.90;99.90;;;18.12;100.00;100376.00;5228365;28;20037;-53
2023/09/20 06:41:50;;;;;;;2.78;1.33;;;17.90;99.90;;;18.09;100.00;100381.28;5231208;28;20542;-53
2023/09/20 06:44:26;;;;;;;2.50;1.20;;;17.90;99.90;;;18.10;100.00;100380.41;5228909;28;20060;-53
2023/09/20 06:46:59;;;;;;;3.10;1.15;;;17.90;99.90;;;18.12;100.00;100375.13;5214723;28;20456;-53
2023/09/20 06:49:32;;;;;;;3.97;1.52;;;17.90;99.90;;;18.11;100.00;100379.53;5219012;28;20053;-52
2023/09/20 06:52:05;;;;;;;2.80;1.20;;;17.90;99.90;;;18.12;100.00;100390.94;5226948;28;20103;-53
2023/09/20 06:54:38;;;;;;;2.70;1.17;;;17.90;99.90;;;18.11;100.00;100389.19;5228046;28;20045;-51
2023/09/20 06:57:17;;;;;;;4.32;1.30;;;17.90;99.90;;;18.13;100.00;100392.72;5229055;28;20048;-52
2023/09/20 06:59:52;;;;;;;4.43;1.33;;;17.90;99.90;;;18.18;100.00;100390.94;5233564;28;20602;-51
2023/09/20 07:02:26;;;;;;;3.83;1.42;;;17.90;99.90;;;18.20;100.00;100388.31;5226911;28;20145;-53
2023/09/20 07:04:59;;;;;;;2.95;1.45;;;17.90;99.90;;;18.26;100.00;100388.28;5220796;28;20392;-52
2023/09/20 07:07:31;;;;;;;3.25;1.23;;;17.90;99.90;;;18.32;100.00;100385.59;5237588;28;20037;-52
2023/09/20 07:10:05;;;;;;;3.17;1.13;;;18.00;99.90;;;18.38;100.00;100390.88;5234868;28;20423;-52
2023/09/20 07:12:38;;;;;;;3.22;1.40;;;18.00;99.90;;;18.44;100.00;100390.84;5229403;28;20053;-52
2023/09/20 07:15:15;;;;;;;3.10;1.15;;;18.10;99.90;;;18.50;100.00;100389.94;5233253;28;20047;-52
2023/09/20 07:17:58;;;;;;;2.30;1.10;;;18.20;99.90;;;18.53;100.00;100385.56;5225587;28;20064;-53
2023/09/20 07:20:32;;;;;;;3.53;1.23;;;18.20;99.90;;;18.55;100.00;100386.41;5237777;28;20078;-52
2023/09/20 07:23:08;;;;;;;1.67;1.13;;;18.20;99.90;;;18.58;100.00;100383.78;5218235;28;20077;-51
2023/09/20 07:25:42;;;;;;;2.08;1.30;;;18.30;99.90;;;18.60;100.00;100379.34;5227808;28;20084;-52
2023/09/20 07:28:16;;;;;;;3.05;1.50;;;18.30;99.90;;;18.64;100.00;100381.06;5233696;28;20049;-53
2023/09/20 07:30:49;;;;;;;3.00;1.50;;;18.30;99.90;;;18.68;100.00;100377.59;5231143;28;20053;-51
2023/09/20 07:33:24;;;;;;;3.45;1.20;;;18.30;99.90;;;18.71;100.00;100392.53;5233559;28;20691;-50
2023/09/20 07:36:00;;;;;;;2.88;0.93;;;18.40;99.90;;;18.71;100.00;100384.59;5229936;28;20571;-54
2023/09/20 07:38:35;;;;;;;4.82;1.33;;;18.40;99.90;;;18.75;100.00;100386.34;5221725;28;20106;-51
2023/09/20 07:41:09;;;;;;;2.88;1.33;;;18.40;99.90;;;18.81;100.00;100386.31;5232274;28;20063;-53
2023/09/20 07:43:43;;;;;;;3.30;1.20;;;18.50;99.90;;;18.85;100.00;100387.19;5224374;28;20400;-52
2023/09/20 07:46:20;;;;;;;2.88;1.00;;;18.50;99.90;;;18.92;100.00;100383.63;5234153;28;20063;-52
2023/09/20 07:48:53;;;;;;;3.95;1.30;;;18.60;99.90;;;18.95;100.00;100376.56;5225904;28;20052;-52
2023/09/20 07:51:29;;;;;;;2.90;1.15;;;18.60;99.90;;;19.00;100.00;100373.91;5233942;28;20037;-52
2023/09/20 07:54:02;;;;;;;2.65;1.30;;;18.70;99.90;;;19.06;100.00;100378.25;5226534;28;20596;-52
2023/09/20 07:56:38;;;;;;;3.60;1.20;;;18.70;99.90;;;19.10;100.00;100380.84;5238274;28;20048;-52
2023/09/20 07:59:13;;;;;;;2.63;1.20;;;18.80;99.90;;;19.20;100.00;100381.69;5233756;28;20111;-52
2023/09/20 08:01:45;;;;;;;2.65;1.10;;;18.80;99.90;;;19.27;100.00;100387.81;5224626;28;20045;-53
2023/09/20 08:04:19;;;;;;;3.10;0.98;;;18.90;99.90;;;19.38;100.00;100375.41;5233274;28;20053;-52
2023/09/20 08:06:53;;;;;;;3.00;1.00;;;18.90;99.90;;;19.41;100.00;100385.94;5224473;28;20115;-52
2023/09/20 08:09:26;;;;;;;3.33;1.35;;;19.00;99.90;;;19.45;100.00;100383.25;5233728;28;20041;-53
2023/09/20 08:12:00;;;;;;;2.28;1.17;;;19.10;99.90;;;19.52;100.00;100378.81;5231311;28;20060;-53
2023/09/20 08:14:35;;;;;;;1.35;1.10;;;19.10;99.90;;;19.65;100.00;100385.78;5224008;28;20045;-52
2023/09/20 08:19:59;;;;;;;3.30;1.20;;;19.40;99.90;;;20.37;100.00;100392.97;5231348;28;20049;-52
2023/09/20 08:59:51;;;;;;;3.25;1.00;;;23.60;99.20;;;24.47;89.24;100387.56;5236886;28;20037;-53
2023/09/20 09:02:26;;;;;;;1.35;0.82;;;23.50;98.60;;;23.86;90.96;100392.72;5230988;28;20582;-52
2023/09/20 09:04:58;;;;;;;1.33;0.85;;;23.20;98.80;;;23.35;93.48;100394.88;5212788;28;20516;-54
2023/09/20 09:07:31;;;;;;;3.30;0.95;;;22.80;99.50;;;22.96;94.99;100397.56;5221001;28;20045;-51
2023/09/20 09:10:07;;;;;;;1.58;1.08;;;22.50;99.70;;;22.61;96.51;100395.59;5232320;28;20138;-51
2023/09/20 09:12:43;;;;;;;1.95;1.40;;;22.20;99.90;;;22.34;98.38;100392.59;5236184;28;20041;-53
2023/09/20 09:15:16;;;;;;;3.75;1.10;;;21.90;99.90;;;22.16;99.72;100393.84;5231741;28;20126;-52
2023/09/20 09:17:49;;;;;;;1.90;0.88;;;21.80;99.90;;;22.07;100.00;100385.16;5222764;28;20049;-51
2023/09/20 09:20:22;;;;;;;2.58;1.10;;;21.70;99.90;;;22.07;100.00;100382.50;5231894;28;20056;-51
2023/09/20 09:22:58;;;;;;;2.55;1.10;;;21.60;99.90;;;22.04;100.00;100382.53;5222340;28;20049;-51
2023/09/20 09:25:31;;;;;;;2.22;1.20;;;21.50;99.90;;;22.21;100.00;100394.63;5225993;28;20102;-51
2023/09/20 09:28:04;;;;;;;2.47;0.90;;;21.60;99.90;;;22.48;100.00;100390.53;5232305;28;20049;-52
2023/09/20 09:30:43;;;;;;;2.38;0.88;;;21.80;99.90;;;22.73;99.90;100384.72;5224506;28;20054;-51
2023/09/20 09:33:17;;;;;;;2.65;0.98;;;22.00;99.90;;;23.05;98.62;100393.81;5230774;28;20052;-53
2023/09/20 09:35:49;;;;;;;1.95;1.00;;;22.30;99.90;;;23.34;95.47;100388.66;5221991;28;20412;-51
2023/09/20 09:38:23;;;;;;;2.45;1.23;;;22.50;99.90;;;23.51;92.85;100380.28;5231680;28;20060;-51
2023/09/20 09:41:00;;;;;;;1.80;0.75;;;22.70;99.40;;;23.51;92.39;100385.59;5222080;28;20037;-52
2023/09/20 09:43:33;;;;;;;4.40;0.90;;;22.80;99.20;;;23.40;91.56;100374.34;5231072;28;20511;-53
2023/09/20 09:46:08;;;;;;;2.50;0.90;;;22.70;98.70;;;23.24;92.71;100377.41;5230104;28;20052;-52
2023/09/20 09:48:42;;;;;;;1.58;0.90;;;22.60;98.90;;;23.07;93.54;100379.56;5238864;28;20048;-51
2023/09/20 09:51:16;;;;;;;1.58;1.00;;;22.50;99.10;;;23.07;94.10;100389.31;5231859;28;20056;-53
2023/09/20 09:53:49;;;;;;;2.65;0.95;;;22.50;99.40;;;23.27;92.50;100376.44;5221601;28;20144;-53
2023/09/20 09:56:24;;;;;;;1.00;0.60;;;22.60;98.80;;;23.41;92.34;100384.97;5231959;28;20973;-51
2023/09/20 09:59:00;;;;;;;2.70;0.95;;;22.70;98.90;;;23.52;92.04;100387.34;5213074;28;20053;-52
2023/09/20 10:01:36;;;;;;;3.10;0.95;;;22.80;98.70;;;23.69;91.82;100390.50;5218433;28;20397;-53
2023/09/20 10:04:11;;;;;;;1.60;0.73;;;22.90;98.80;;;23.84;89.95;100389.22;5228816;28;20049;-48
2023/09/20 10:07:05;;;;;;;1.65;0.60;;;23.00;98.10;;;23.85;89.71;100401.63;5235310;28;20034;-49
2023/09/20 10:09:41;;;;;;;1.38;0.77;;;23.10;97.80;;;23.95;89.33;100397.81;5224597;28;20478;-54
2023/09/20 10:12:14;;;;;;;1.95;0.70;;;23.20;97.60;;;24.15;90.25;100388.41;5231421;28;20049;-55
2023/09/20 10:14:48;;;;;;;1.05;0.70;;;23.30;98.00;;;24.38;89.98;100377.13;5235834;28;20065;-54
2023/09/20 10:17:21;;;;;;;1.10;0.73;;;23.50;97.90;;;24.41;88.32;100380.59;5228559;28;20048;-50
2023/09/20 10:19:53;;;;;;;2.28;0.95;;;23.60;97.40;;;24.38;89.01;100391.31;5239955;28;20080;-50
2023/09/20 10:22:26;;;;;;;1.33;0.80;;;23.60;97.30;;;24.53;88.64;100382.06;5239977;28;20060;-49
2023/09/20 10:25:01;;;;;;;1.50;0.75;;;23.70;97.20;;;24.83;86.97;100377.56;5239826;28;20041;-49
2023/09/20 10:27:35;;;;;;;3.22;0.80;;;23.90;96.80;;;25.04;85.45;100365.38;5240329;28;20534;-49
2023/09/20 10:30:13;;;;;;;1.40;0.80;;;24.20;96.20;;;25.22;85.42;100363.94;5239740;28;20095;-50
2023/09/20 10:32:55;;;;;;;1.35;0.75;;;24.30;96.10;;;25.31;84.34;100369.00;5239807;28;20569;-49
2023/09/20 10:35:29;;;;;;;2.55;0.82;;;24.40;95.70;;;25.39;83.94;100359.81;5239994;28;20077;-50
2023/09/20 10:38:25;;;;;;;2.45;1.13;;;24.50;95.30;;;25.48;83.44;100361.31;5240760;28;20053;-51
2023/09/20 10:41:05;;;;;;;1.27;0.70;;;24.60;95.10;;;25.52;82.22;100357.63;5243464;28;20073;-50
2023/09/20 10:43:54;;;;;;;2.08;0.70;;;24.70;94.50;;;25.50;82.43;100347.94;5243652;28;20051;-49
2023/09/20 10:46:27;;;;;;;1.13;0.68;;;24.70;94.40;;;25.55;82.47;100346.81;5243623;28;20060;-50
2023/09/20 10:48:59;;;;;;;0.88;0.85;;;24.80;94.30;;;25.71;81.50;100332.03;5243797;28;20107;-51
2023/09/20 10:51:52;;;;;;;1.00;0.55;;;24.90;94.10;;;25.87;80.88;100336.88;5243536;28;20106;-50
2023/09/20 10:54:29;;;;;;;2.00;0.70;;;25.00;93.70;;;25.85;80.40;100338.72;5243577;28;20044;-49
2023/09/20 10:57:10;;;;;;;2.72;0.77;;;25.00;93.40;;;25.87;80.91;100342.22;5243469;28;20049;-49
2023/09/20 10:59:45;;;;;;;2.25;0.82;;;25.10;93.50;;;25.93;80.26;100347.34;5243155;28;20060;-50
2023/09/20 11:02:18;;;;;;;2.22;0.90;;;25.10;93.30;;;26.01;80.71;100350.59;5243359;28;20523;-50
2023/09/20 11:04:51;;;;;;;1.70;0.85;;;25.20;93.40;;;26.07;80.15;100349.50;5243236;28;20321;-51
2023/09/20 11:07:26;;;;;;;3.50;0.85;;;25.20;93.20;;;26.01;79.81;100339.03;5243289;28;20139;-51
2023/09/20 11:09:59;;;;;;;2.95;0.90;;;25.20;92.90;;;25.88;80.48;100338.59;5243312;28;20044;-50
2023/09/20 11:12:32;;;;;;;2.67;0.70;;;25.10;93.10;;;25.75;80.09;100334.63;5243296;28;20511;-50
2023/09/20 11:15:09;;;;;;;1.55;0.90;;;25.00;93.00;;;25.61;80.93;100324.41;5243174;28;20060;-49
2023/09/20 11:17:42;;;;;;;2.65;0.95;;;24.90;93.10;;;25.52;81.14;100338.94;5243128;28;20045;-50